Time;durP1;ratioP1;P1;durP2;ratioP2;P2;SDS_P1;SDS_P2;PMS_P1;PMS_P2;Temp;Humidity;BMP_temperature;BMP_pressure;BME280_temperature;BME280_humidity;BME280_pressure;Samples;Min_cycle;Max_cycle;Signal;HPM_P1;HPM_P2
2023/12/28 00:01:15;;;;;;;5.38;2.97;;;8.80;99.90;;;8.71;67.41;100561.88;4850620;28;24463;-66
2023/12/28 00:03:37;;;;;;;3.97;3.10;;;8.70;99.90;;;8.68;67.57;100557.69;4868654;28;25256;-66
2023/12/28 00:05:59;;;;;;;3.80;3.40;;;8.60;99.90;;;8.71;67.33;100573.09;4854083;28;24881;-66
2023/12/28 00:08:21;;;;;;;3.35;3.05;;;8.60;99.90;;;8.68;67.44;100578.50;4855516;28;24454;-66
2023/12/28 00:10:43;;;;;;;6.00;3.70;;;8.60;99.90;;;8.67;67.55;100584.63;4833226;28;25003;-66
2023/12/28 00:13:05;;;;;;;4.20;3.20;;;8.60;99.90;;;8.70;67.28;100576.66;4867111;28;24534;-66
2023/12/28 00:15:27;;;;;;;5.63;3.20;;;8.70;99.90;;;8.71;67.21;100577.47;4872205;28;25028;-66
2023/12/28 00:17:49;;;;;;;4.63;3.42;;;8.70;99.90;;;8.69;67.39;100584.56;4831186;28;24484;-65
2023/12/28 00:20:12;;;;;;;3.53;3.22;;;8.60;99.90;;;8.68;67.30;100583.72;4871973;28;24431;-66
2023/12/28 00:22:37;;;;;;;3.70;3.03;;;8.60;99.90;;;8.65;67.45;100583.91;4842650;28;24550;-66
2023/12/28 00:24:58;;;;;;;4.63;3.30;;;8.60;99.90;;;8.63;67.48;100584.91;4878233;28;24459;-66
2023/12/28 00:27:20;;;;;;;3.30;3.00;;;8.50;99.90;;;8.55;67.81;100588.88;4857617;28;24826;-66
2023/12/28 00:29:43;;;;;;;3.20;3.00;;;8.50;99.90;;;8.62;67.33;100598.88;4841270;28;24428;-66
2023/12/28 00:32:09;;;;;;;3.47;3.17;;;8.50;99.90;;;8.67;67.55;100592.44;4840141;28;24427;-66
2023/12/28 00:34:31;;;;;;;4.32;3.50;;;8.60;99.90;;;8.55;67.05;100591.47;4833080;28;25135;-66
2023/12/28 00:36:53;;;;;;;4.00;3.60;;;8.60;99.90;;;8.55;67.37;100601.03;4850854;28;24427;-67
2023/12/28 00:39:15;;;;;;;3.17;2.63;;;8.50;99.90;;;8.45;68.03;100590.38;4842895;28;25039;-66
2023/12/28 00:41:37;;;;;;;3.30;2.42;;;8.50;99.90;;;8.43;67.71;100581.03;4858533;28;24531;-67
2023/12/28 00:44:00;;;;;;;4.07;3.03;;;8.40;99.90;;;8.48;67.68;100571.16;4860398;28;25601;-66
2023/12/28 00:46:22;;;;;;;4.00;3.13;;;8.40;99.90;;;8.47;67.79;100569.50;4871215;28;24447;-63
2023/12/28 00:48:44;;;;;;;5.00;2.85;;;8.40;99.90;;;8.41;67.70;100572.50;4875595;28;24434;-65
2023/12/28 00:51:06;;;;;;;3.65;2.00;;;8.40;99.90;;;8.40;67.28;100570.81;4876189;28;24454;-66
2023/12/28 00:53:28;;;;;;;5.00;2.80;;;8.40;99.90;;;8.45;66.90;100561.75;4840816;28;24864;-66
2023/12/28 00:55:50;;;;;;;4.05;2.97;;;8.40;99.90;;;8.50;66.77;100559.72;4843607;28;24902;-65
2023/12/28 00:58:12;;;;;;;3.60;3.10;;;8.40;99.90;;;8.47;66.79;100564.28;4858344;28;24999;-66
2023/12/28 01:00:34;;;;;;;3.95;2.90;;;8.40;99.90;;;8.46;66.90;100566.06;4868550;28;24537;-67
2023/12/28 01:02:56;;;;;;;2.55;2.00;;;8.40;99.90;;;8.44;67.17;100575.72;4851393;28;24550;-66
2023/12/28 01:05:19;;;;;;;3.60;2.75;;;8.40;99.90;;;8.42;66.75;100572.38;4866862;28;24423;-66
2023/12/28 01:07:41;;;;;;;3.33;3.03;;;8.40;99.90;;;8.44;66.91;100585.28;4849717;28;25017;-66
2023/12/28 01:10:03;;;;;;;3.95;2.80;;;8.40;99.90;;;8.48;66.87;100589.34;4867693;28;25765;-66
2023/12/28 01:12:25;;;;;;;3.30;3.00;;;8.40;99.90;;;8.48;67.20;100591.94;4871476;28;24845;-65
2023/12/28 01:14:47;;;;;;;4.30;3.00;;;8.40;99.90;;;8.50;66.88;100592.69;4867882;28;24450;-65
2023/12/28 01:17:09;;;;;;;4.50;3.20;;;8.40;99.90;;;8.48;67.37;100586.75;4875602;28;24432;-66
2023/12/28 01:19:31;;;;;;;4.10;3.17;;;8.40;99.90;;;8.50;67.06;100587.47;4872824;28;24447;-66
2023/12/28 01:21:53;;;;;;;2.20;2.10;;;8.40;99.90;;;8.49;66.68;100583.22;4857265;28;24547;-66
2023/12/28 01:24:16;;;;;;;5.90;3.40;;;8.50;99.90;;;8.52;66.89;100583.84;4846142;28;24454;-66
2023/12/28 01:26:38;;;;;;;4.90;3.40;;;8.50;99.90;;;8.49;67.08;100572.81;4867079;28;24572;-67
2023/12/28 01:29:02;;;;;;;5.55;3.70;;;8.40;99.90;;;8.50;67.23;100582.28;4858279;28;24481;-66
2023/12/28 01:31:24;;;;;;;4.40;3.10;;;8.40;99.90;;;8.45;67.06;100597.34;4815489;28;24451;-66
2023/12/28 01:33:46;;;;;;;3.55;3.00;;;8.40;99.90;;;8.49;67.07;100593.63;4831809;28;24496;-65
2023/12/28 01:36:19;;;;;;;3.45;3.20;;;8.40;99.90;;;8.51;67.37;100589.16;4865029;28;24431;-65
2023/12/28 01:38:41;;;;;;;6.50;3.40;;;8.40;99.90;;;8.49;67.61;100593.63;4875144;28;24542;-65
2023/12/28 01:41:03;;;;;;;5.13;3.40;;;8.40;99.90;;;8.43;67.47;100589.63;4862644;28;24517;-65
2023/12/28 01:43:25;;;;;;;4.10;2.85;;;8.40;99.90;;;8.47;67.98;100600.69;4871886;28;24424;-66
2023/12/28 01:45:47;;;;;;;3.50;3.20;;;8.40;99.90;;;8.45;67.46;100602.56;4845938;28;24498;-65
2023/12/28 01:48:09;;;;;;;6.72;3.10;;;8.40;99.90;;;8.62;67.41;100601.47;4865047;28;24446;-65
2023/12/28 01:50:32;;;;;;;2.60;2.22;;;8.50;99.90;;;8.67;66.69;100608.03;4847537;28;24941;-65
2023/12/28 01:52:58;;;;;;;5.78;3.60;;;8.60;99.90;;;8.72;66.85;100603.38;4862272;28;24521;-64
2023/12/28 01:55:21;;;;;;;3.65;3.35;;;8.60;99.90;;;8.84;66.36;100610.38;4833182;28;24466;-65
2023/12/28 01:57:43;;;;;;;3.85;3.42;;;8.70;99.90;;;8.90;65.84;100615.19;4876107;28;24514;-65
2023/12/28 02:00:06;;;;;;;3.63;3.33;;;8.80;99.90;;;8.97;66.07;100626.03;4873461;28;24427;-65
2023/12/28 02:02:33;;;;;;;4.20;3.42;;;8.80;99.90;;;9.03;65.68;100625.66;4851250;28;24533;-65
2023/12/28 02:04:54;;;;;;;3.60;3.30;;;8.90;99.90;;;9.04;65.83;100616.91;4831468;28;25001;-66
2023/12/28 02:07:18;;;;;;;5.68;3.38;;;8.90;99.90;;;9.03;66.06;100636.06;4839315;28;24467;-66
2023/12/28 02:09:40;;;;;;;3.70;3.40;;;8.90;99.90;;;9.03;66.21;100629.06;4847644;28;24483;-65
2023/12/28 02:12:03;;;;;;;3.70;3.40;;;8.90;99.90;;;9.08;66.53;100649.59;4873169;28;24459;-64
2023/12/28 02:14:25;;;;;;;4.68;3.90;;;8.90;99.90;;;9.13;66.28;100642.34;4863623;28;24503;-65
2023/12/28 02:16:56;;;;;;;4.35;3.47;;;8.90;99.90;;;9.13;66.12;100629.31;4848552;28;24443;-65
2023/12/28 02:19:40;;;;;;;4.75;3.60;;;9.00;99.90;;;9.16;66.95;100637.75;4854213;28;24444;-66
2023/12/28 02:22:03;;;;;;;4.80;3.80;;;9.00;99.90;;;9.19;66.74;100637.56;4850337;28;24538;-65
2023/12/28 02:24:25;;;;;;;3.90;3.13;;;9.00;99.90;;;9.17;66.68;100633.38;4832647;28;24538;-64
2023/12/28 02:26:47;;;;;;;4.38;3.40;;;9.10;99.90;;;9.17;66.81;100635.97;4845990;28;24432;-65
2023/12/28 02:29:09;;;;;;;3.80;3.42;;;9.10;99.90;;;9.22;67.25;100641.72;4858556;28;24442;-66
2023/12/28 02:31:39;;;;;;;3.67;2.83;;;9.10;99.90;;;9.24;67.66;100643.28;4866245;28;24474;-65
2023/12/28 02:34:22;;;;;;;4.03;3.35;;;9.10;99.90;;;9.28;67.56;100630.91;4849448;28;24892;-65
2023/12/28 02:36:46;;;;;;;3.10;2.90;;;9.10;99.90;;;9.30;68.38;100629.03;4857239;28;24461;-65
2023/12/28 02:39:11;;;;;;;2.80;2.60;;;9.20;99.90;;;9.39;70.18;100626.63;4855852;28;25008;-66
2023/12/28 02:41:34;;;;;;;2.30;2.20;;;9.20;99.90;;;9.50;71.48;100617.28;4837178;28;24486;-66
2023/12/28 02:43:56;;;;;;;2.30;2.20;;;9.30;99.90;;;9.66;71.30;100623.09;4842141;28;24435;-66
2023/12/28 02:46:18;;;;;;;4.95;2.35;;;9.40;99.90;;;9.78;71.29;100630.91;4856217;28;24822;-66
2023/12/28 02:48:40;;;;;;;2.20;2.00;;;9.50;99.90;;;9.91;69.43;100623.94;4865266;28;24428;-65
2023/12/28 02:51:02;;;;;;;2.33;2.13;;;9.70;99.90;;;10.00;69.53;100633.72;4845651;28;24489;-66
2023/12/28 02:53:24;;;;;;;2.00;1.90;;;9.80;99.90;;;10.11;69.69;100643.44;4867224;28;24481;-66
2023/12/28 02:55:46;;;;;;;3.25;2.30;;;9.90;99.90;;;10.13;69.79;100651.97;4839637;28;24486;-67
2023/12/28 02:58:08;;;;;;;2.33;2.03;;;10.00;99.90;;;10.22;69.96;100653.97;4857724;28;25078;-65
2023/12/28 03:00:30;;;;;;;2.20;2.00;;;10.00;99.90;;;10.29;69.42;100659.53;4874610;28;24485;-66
2023/12/28 03:02:52;;;;;;;2.40;2.20;;;10.10;99.90;;;10.30;69.43;100663.84;4868907;28;24833;-67
2023/12/28 03:05:14;;;;;;;2.58;2.28;;;10.10;99.90;;;10.30;69.63;100649.03;4867514;28;24499;-66
2023/12/28 03:07:36;;;;;;;2.70;2.50;;;10.10;99.90;;;10.29;68.97;100649.13;4848007;28;24539;-66
2023/12/28 03:09:59;;;;;;;2.70;2.40;;;10.10;99.90;;;10.25;68.78;100645.06;4842564;28;24439;-65
2023/12/28 03:12:21;;;;;;;3.87;2.60;;;10.10;99.90;;;10.24;67.82;100644.25;4842895;28;24428;-66
2023/12/28 03:14:44;;;;;;;2.43;2.33;;;10.10;99.90;;;10.21;68.45;100649.66;4854481;28;24439;-65
2023/12/28 03:17:05;;;;;;;3.60;2.55;;;10.10;99.90;;;10.19;69.33;100641.13;4869162;28;24424;-67
2023/12/28 03:19:27;;;;;;;2.40;2.20;;;10.00;99.90;;;10.20;69.70;100648.00;4824183;28;24432;-67
2023/12/28 03:21:49;;;;;;;2.47;2.28;;;10.00;99.90;;;10.24;70.54;100635.59;4854137;28;24486;-66
2023/12/28 03:24:11;;;;;;;2.40;2.20;;;10.00;99.90;;;10.28;71.02;100640.47;4860838;28;24816;-65
2023/12/28 03:26:38;;;;;;;2.40;2.20;;;10.10;99.90;;;10.30;70.53;100645.59;4864088;28;24825;-66
2023/12/28 03:29:00;;;;;;;2.13;2.00;;;10.10;99.90;;;10.29;71.46;100641.28;4866889;28;24444;-66
2023/12/28 03:31:23;;;;;;;2.20;2.10;;;10.10;99.90;;;10.31;71.00;100635.03;4872601;28;24477;-65
2023/12/28 03:33:45;;;;;;;2.40;1.90;;;10.10;99.90;;;10.31;71.94;100640.25;4852289;28;25000;-65
2023/12/28 03:36:07;;;;;;;2.20;2.00;;;10.20;99.90;;;10.33;73.02;100642.78;4862170;28;24965;-65
2023/12/28 03:38:29;;;;;;;1.80;1.70;;;10.20;99.90;;;10.40;74.52;100650.03;4870768;28;24485;-65
2023/12/28 03:40:51;;;;;;;2.58;1.83;;;10.20;99.90;;;10.50;74.68;100642.41;4853829;28;24482;-65
2023/12/28 03:43:13;;;;;;;1.80;1.70;;;10.30;99.90;;;10.58;73.90;100651.34;4867387;28;24512;-66
2023/12/28 03:45:35;;;;;;;1.60;1.50;;;10.40;99.90;;;10.56;73.16;100644.56;4862510;28;24486;-66
2023/12/28 03:47:57;;;;;;;1.95;1.75;;;10.40;99.90;;;10.49;73.29;100633.75;4871508;28;24769;-65
2023/12/28 03:50:20;;;;;;;1.95;1.85;;;10.40;99.90;;;10.52;72.76;100653.56;4877024;28;24431;-65
2023/12/28 03:52:42;;;;;;;2.40;2.27;;;10.40;99.90;;;10.47;72.65;100664.31;4861026;28;20782;-65
2023/12/28 03:55:04;;;;;;;1.90;1.80;;;10.30;99.90;;;10.43;73.36;100669.88;4868241;28;25151;-66
2023/12/28 03:57:26;;;;;;;2.45;2.05;;;10.30;99.90;;;10.42;72.70;100669.03;4860814;28;24447;-65
2023/12/28 03:59:48;;;;;;;2.75;2.10;;;10.20;99.90;;;10.43;73.00;100675.06;4845317;28;24536;-66
2023/12/28 04:02:10;;;;;;;2.53;2.20;;;10.20;99.90;;;10.37;74.63;100678.94;4846297;28;25124;-66
2023/12/28 04:04:32;;;;;;;2.08;1.88;;;10.20;99.90;;;10.32;75.65;100673.22;4860936;28;24442;-65
2023/12/28 04:06:54;;;;;;;2.30;2.10;;;10.20;99.90;;;10.25;76.97;100671.97;4851771;28;25045;-66
2023/12/28 04:09:17;;;;;;;1.90;1.80;;;10.10;99.90;;;10.30;77.83;100666.44;4839033;28;24446;-65
2023/12/28 04:11:39;;;;;;;2.28;1.60;;;10.20;99.90;;;10.30;78.63;100672.50;4871484;28;24445;-65
2023/12/28 04:14:01;;;;;;;3.03;1.80;;;10.20;99.90;;;10.31;80.32;100689.78;4854626;28;24872;-65
2023/12/28 04:16:23;;;;;;;1.70;1.60;;;10.10;99.90;;;10.29;80.36;100689.06;4858801;28;24467;-64
2023/12/28 04:18:45;;;;;;;1.50;1.40;;;10.10;99.90;;;10.24;81.13;100685.97;4851278;28;24489;-66
2023/12/28 04:21:10;;;;;;;2.90;1.75;;;10.10;99.90;;;10.27;80.43;100696.16;4853702;28;20763;-65
2023/12/28 04:23:32;;;;;;;1.98;1.88;;;10.10;99.90;;;10.26;79.32;100710.16;4865548;28;24513;-65
2023/12/28 04:25:53;;;;;;;2.20;2.10;;;10.10;99.90;;;10.25;76.64;100705.03;4869593;28;24523;-65
2023/12/28 04:28:15;;;;;;;2.37;2.20;;;10.10;99.90;;;10.10;76.51;100684.31;4859283;28;24460;-66
2023/12/28 04:30:37;;;;;;;2.38;2.17;;;10.00;99.90;;;10.11;75.70;100670.31;4870878;28;24424;-65
2023/12/28 04:33:04;;;;;;;2.38;2.28;;;10.00;99.90;;;10.03;75.40;100688.25;4867235;28;25305;-64
2023/12/28 04:35:25;;;;;;;2.10;2.00;;;9.90;99.90;;;10.01;76.11;100699.69;4864641;28;24459;-65
2023/12/28 04:37:47;;;;;;;3.08;2.17;;;9.90;99.90;;;9.95;76.77;100687.09;4856344;28;24508;-65
2023/12/28 04:40:09;;;;;;;2.10;2.00;;;9.80;99.90;;;9.97;78.39;100680.00;4861217;28;24519;-66
2023/12/28 04:42:31;;;;;;;2.13;2.03;;;9.80;99.90;;;10.01;77.05;100684.91;4874447;28;24521;-66
2023/12/28 04:44:53;;;;;;;2.77;2.30;;;9.90;99.90;;;10.04;78.36;100702.13;4877017;28;24433;-66
2023/12/28 04:47:15;;;;;;;2.10;2.00;;;9.90;99.90;;;10.11;80.20;100695.56;4851207;28;24547;-65
2023/12/28 04:49:37;;;;;;;1.63;1.52;;;9.90;99.90;;;10.16;85.18;100683.03;4845496;28;24501;-65
2023/12/28 04:52:00;;;;;;;1.60;1.50;;;10.00;99.90;;;10.23;86.91;100689.50;4871480;28;24543;-66
2023/12/28 04:54:22;;;;;;;1.52;1.52;;;10.10;99.90;;;10.24;87.50;100690.34;4848170;28;24535;-66
2023/12/28 04:56:45;;;;;;;1.20;1.20;;;10.10;99.90;;;10.26;88.07;100697.13;4858026;28;25016;-65
2023/12/28 04:59:07;;;;;;;1.50;1.40;;;10.10;99.90;;;10.28;88.85;100703.06;4871052;28;25060;-66
2023/12/28 05:01:31;;;;;;;2.60;1.60;;;10.10;99.90;;;10.29;90.04;100701.28;4849106;28;24865;-66
2023/12/28 05:03:53;;;;;;;1.20;1.20;;;10.20;99.90;;;10.32;89.56;100699.31;4840628;28;24427;-65
2023/12/28 05:06:15;;;;;;;1.50;1.50;;;10.20;99.90;;;10.30;90.65;100706.41;4849671;28;24450;-66
2023/12/28 05:08:37;;;;;;;1.30;1.20;;;10.20;99.90;;;10.31;91.01;100696.81;4856870;28;25067;-65
2023/12/28 05:10:59;;;;;;;1.40;1.30;;;10.20;99.90;;;10.29;90.96;100696.91;4846604;28;24458;-67
2023/12/28 05:13:21;;;;;;;1.40;1.30;;;10.20;99.90;;;10.24;92.48;100687.75;4855875;28;24445;-66
2023/12/28 05:15:43;;;;;;;1.45;1.35;;;10.10;99.90;;;10.16;92.90;100692.66;4872700;28;25086;-67
2023/12/28 05:18:07;;;;;;;1.43;1.33;;;10.10;99.90;;;10.27;92.04;100692.72;4857237;28;24514;-65
2023/12/28 05:20:29;;;;;;;1.42;1.42;;;10.10;99.90;;;10.26;90.41;100699.75;4851716;28;24700;-66
2023/12/28 05:22:51;;;;;;;1.45;1.45;;;10.10;99.90;;;10.20;87.43;100702.75;4838859;28;24455;-65
2023/12/28 05:25:13;;;;;;;1.70;1.60;;;10.10;99.90;;;10.11;86.48;100698.19;4846139;28;24614;-66
2023/12/28 05:27:35;;;;;;;1.90;1.80;;;10.00;99.90;;;10.03;85.51;100710.84;4876007;28;25037;-65
2023/12/28 05:29:57;;;;;;;2.20;2.10;;;9.90;99.90;;;10.03;85.05;100714.31;4871164;28;24482;-65
2023/12/28 05:32:19;;;;;;;2.40;2.20;;;9.90;99.90;;;9.98;85.01;100716.41;4856335;28;24997;-66
2023/12/28 05:34:41;;;;;;;1.83;1.73;;;9.90;99.90;;;9.95;84.60;100706.19;4869642;28;24516;-66
2023/12/28 05:37:04;;;;;;;2.30;2.10;;;9.90;99.90;;;9.91;86.76;100714.31;4850477;28;24481;-66
2023/12/28 05:39:25;;;;;;;2.17;2.00;;;9.80;99.90;;;9.95;85.90;100734.00;4857063;28;25059;-66
2023/12/28 05:41:50;;;;;;;1.85;1.75;;;9.80;99.90;;;9.99;86.75;100731.09;4839538;28;25047;-66
2023/12/28 05:44:12;;;;;;;1.90;1.80;;;9.80;99.90;;;10.01;87.01;100721.41;4863870;28;24452;-65
2023/12/28 05:46:34;;;;;;;2.03;1.92;;;9.80;99.90;;;9.97;88.78;100730.38;4870771;28;25068;-65
2023/12/28 05:48:56;;;;;;;2.15;2.05;;;9.80;99.90;;;10.02;89.59;100732.66;4864102;28;24434;-66
2023/12/28 05:51:21;;;;;;;2.00;1.90;;;9.80;99.90;;;10.07;89.17;100727.97;4847038;28;24451;-66
2023/12/28 05:53:43;;;;;;;2.45;1.77;;;9.90;99.90;;;10.03;90.97;100719.50;4867187;28;24432;-66
2023/12/28 05:56:05;;;;;;;2.10;1.90;;;9.90;99.90;;;10.06;91.15;100719.31;4870680;28;24434;-66
2023/12/28 05:58:27;;;;;;;1.70;1.60;;;9.90;99.90;;;10.16;91.16;100729.16;4859658;28;24505;-66
2023/12/28 06:00:49;;;;;;;1.70;1.60;;;10.00;99.90;;;10.20;93.24;100733.22;4840647;28;24498;-66
2023/12/28 06:03:11;;;;;;;1.33;1.33;;;10.00;99.90;;;10.24;93.30;100739.88;4863728;28;24545;-65
2023/12/28 06:05:33;;;;;;;1.48;1.35;;;10.00;99.90;;;10.31;93.73;100734.13;4868989;28;24455;-66
2023/12/28 06:07:55;;;;;;;1.48;1.38;;;10.10;99.90;;;10.34;93.79;100744.38;4871218;28;24854;-66
2023/12/28 06:10:17;;;;;;;1.50;1.50;;;10.10;99.90;;;10.35;94.18;100748.63;4855143;28;24435;-65
2023/12/28 06:12:39;;;;;;;1.30;1.30;;;10.10;99.90;;;10.43;94.46;100746.34;4844251;28;25036;-65
2023/12/28 06:15:01;;;;;;;1.20;1.20;;;10.20;99.90;;;10.51;93.61;100756.22;4845124;28;25087;-65
2023/12/28 06:17:23;;;;;;;1.40;1.30;;;10.30;99.90;;;10.52;93.80;100763.94;4865323;28;25035;-66
2023/12/28 06:19:45;;;;;;;1.00;1.00;;;10.30;99.90;;;10.47;94.49;100760.84;4864295;28;25005;-65
2023/12/28 06:22:07;;;;;;;1.40;1.30;;;10.30;99.90;;;10.39;95.06;100752.69;4866690;28;24459;-65
2023/12/28 06:24:29;;;;;;;1.48;1.38;;;10.30;99.90;;;10.41;95.19;100760.44;4856346;28;24431;-66
2023/12/28 06:26:51;;;;;;;1.60;1.50;;;10.30;99.90;;;10.42;95.53;100751.66;4856569;28;24439;-65
2023/12/28 06:29:13;;;;;;;1.40;1.30;;;10.30;99.90;;;10.37;95.36;100751.97;4822734;28;24526;-65
2023/12/28 06:31:38;;;;;;;1.90;1.80;;;10.20;99.90;;;10.33;95.94;100753.13;4856772;28;24546;-66
2023/12/28 06:34:05;;;;;;;2.28;1.60;;;10.20;99.90;;;10.38;95.63;100758.88;4863431;28;24455;-65
2023/12/28 06:36:29;;;;;;;1.60;1.60;;;10.20;99.90;;;10.43;94.92;100762.00;4865420;28;24489;-64
2023/12/28 06:38:51;;;;;;;1.67;1.58;;;10.20;99.90;;;10.45;95.29;100765.34;4841165;28;20779;-66
2023/12/28 06:41:13;;;;;;;1.60;1.50;;;10.20;99.90;;;10.45;94.58;100770.56;4855860;28;25050;-66
2023/12/28 06:43:35;;;;;;;1.70;1.60;;;10.30;99.90;;;10.44;94.92;100765.41;4874158;28;24513;-66
2023/12/28 06:45:57;;;;;;;1.60;1.50;;;10.30;99.90;;;10.31;95.09;100760.22;4863564;28;24446;-66
2023/12/28 06:48:19;;;;;;;1.77;1.67;;;10.20;99.90;;;10.24;95.56;100748.56;4874489;28;24473;-66
2023/12/28 06:50:41;;;;;;;1.70;1.60;;;10.10;99.90;;;10.10;95.62;100743.41;4855279;28;24440;-66
2023/12/28 06:53:03;;;;;;;2.30;2.00;;;10.00;99.90;;;10.04;95.91;100733.41;4837814;28;24432;-66
2023/12/28 06:55:25;;;;;;;2.40;1.97;;;10.00;99.90;;;10.09;95.68;100739.13;4869135;28;24539;-66
2023/12/28 06:57:47;;;;;;;2.10;2.00;;;9.90;99.90;;;10.04;96.09;100743.81;4865287;28;24977;-66
2023/12/28 07:00:10;;;;;;;2.13;2.03;;;9.90;99.90;;;10.06;96.35;100749.75;4869612;28;24489;-66
2023/12/28 07:02:32;;;;;;;2.65;1.90;;;9.90;99.90;;;10.11;96.23;100763.38;4860958;28;24459;-66
2023/12/28 07:04:54;;;;;;;2.10;2.00;;;9.90;99.90;;;10.13;96.35;100774.53;4873391;28;24454;-66
2023/12/28 07:07:16;;;;;;;1.90;1.80;;;9.90;99.90;;;10.12;96.58;100768.47;4867932;28;24424;-66
2023/12/28 07:09:38;;;;;;;2.10;1.90;;;9.90;99.90;;;10.17;95.32;100764.72;4854654;28;24432;-66
2023/12/28 07:12:00;;;;;;;1.90;1.80;;;10.00;99.90;;;10.18;95.98;100761.19;4863375;28;24458;-66
2023/12/28 07:14:22;;;;;;;1.98;1.80;;;10.00;99.90;;;10.16;96.17;100761.25;4824361;28;24463;-66
2023/12/28 07:16:44;;;;;;;2.20;2.00;;;10.00;99.90;;;10.15;96.17;100759.59;4873193;28;24523;-65
2023/12/28 07:19:06;;;;;;;2.40;2.00;;;10.00;99.90;;;10.14;96.47;100773.56;4853963;28;24594;-66
2023/12/28 07:21:28;;;;;;;1.88;1.77;;;10.00;99.90;;;10.12;96.53;100772.84;4851095;28;24447;-66
2023/12/28 07:23:50;;;;;;;2.63;1.70;;;10.00;99.90;;;10.10;96.97;100766.88;4862614;28;24551;-66
2023/12/28 07:26:12;;;;;;;1.60;1.60;;;10.00;99.90;;;10.13;95.82;100774.53;4837807;28;24507;-66
2023/12/28 07:28:34;;;;;;;1.90;1.80;;;10.00;99.90;;;10.10;96.27;100779.91;4864053;28;24546;-66
2023/12/28 07:30:57;;;;;;;2.20;2.00;;;10.00;99.90;;;10.05;96.26;100780.22;4856953;28;24609;-64
2023/12/28 07:33:19;;;;;;;2.42;2.22;;;9.90;99.90;;;9.98;97.94;100796.38;4856070;28;24434;-66
2023/12/28 07:35:41;;;;;;;2.08;1.80;;;9.90;99.90;;;10.02;97.47;100797.84;4867959;28;24456;-65
2023/12/28 07:38:03;;;;;;;2.15;1.88;;;9.90;99.90;;;10.10;96.86;100793.81;4853929;28;24482;-65
2023/12/28 07:40:25;;;;;;;2.15;1.98;;;9.90;99.90;;;10.09;97.61;100797.31;4863152;28;25091;-66
2023/12/28 07:42:47;;;;;;;2.10;2.00;;;9.90;99.90;;;10.05;98.55;100795.03;4859474;28;24463;-67
2023/12/28 07:45:09;;;;;;;2.20;2.00;;;9.90;99.90;;;10.06;97.92;100804.50;4836562;28;25300;-67
2023/12/28 07:47:31;;;;;;;2.05;1.85;;;9.90;99.90;;;10.06;98.12;100796.69;4867213;28;25043;-68
2023/12/28 07:49:53;;;;;;;1.90;1.80;;;9.90;99.90;;;10.06;98.29;100781.88;4862110;28;24440;-67
2023/12/28 07:52:15;;;;;;;2.33;1.90;;;9.90;99.90;;;10.06;98.69;100797.53;4874180;28;24430;-68
2023/12/28 07:54:37;;;;;;;1.40;1.30;;;9.90;99.90;;;10.05;99.63;100803.66;4849118;28;24435;-65
2023/12/28 07:57:00;;;;;;;2.22;2.13;;;9.90;99.90;;;10.13;99.04;100804.03;4872445;28;24605;-66
2023/12/28 07:59:22;;;;;;;2.10;1.70;;;10.00;99.90;;;10.03;99.10;100805.53;4840004;28;25127;-67
2023/12/28 08:01:45;;;;;;;1.50;1.40;;;10.00;99.90;;;10.01;100.00;100804.81;4860359;28;24459;-65
2023/12/28 08:04:07;;;;;;;3.20;1.80;;;9.90;99.90;;;10.10;99.88;100803.38;4846542;28;24594;-66
2023/12/28 08:06:33;;;;;;;2.20;1.60;;;9.90;99.90;;;10.10;100.00;100808.56;4864572;28;25517;-67
2023/12/28 08:08:54;;;;;;;1.75;1.65;;;10.00;99.90;;;10.11;99.65;100805.06;4855618;28;24423;-66
2023/12/28 08:11:16;;;;;;;2.75;1.98;;;10.00;99.90;;;10.14;99.85;100815.28;4872675;28;24430;-66
2023/12/28 08:13:38;;;;;;;1.75;1.65;;;10.00;99.90;;;10.19;100.00;100812.38;4854569;28;24866;-65
2023/12/28 08:16:00;;;;;;;1.53;1.43;;;10.00;99.90;;;10.16;100.00;100823.03;4845153;28;24505;-66
2023/12/28 08:18:22;;;;;;;1.60;1.50;;;10.00;99.90;;;10.23;99.93;100819.03;4854979;28;24892;-66
2023/12/28 08:20:44;;;;;;;1.42;1.30;;;10.10;99.90;;;10.21;100.00;100807.88;4842909;28;24997;-66
2023/12/28 08:23:06;;;;;;;1.67;1.58;;;10.10;99.90;;;10.22;100.00;100801.75;4852629;28;24475;-67
2023/12/28 08:25:39;;;;;;;1.13;0.90;;;10.10;99.90;;;10.22;100.00;100813.03;4849152;28;24505;-65
2023/12/28 08:28:01;;;;;;;3.38;1.60;;;10.10;99.90;;;10.19;100.00;100802.78;4874791;28;24445;-66
2023/12/28 08:30:24;;;;;;;1.60;1.50;;;10.10;99.90;;;10.19;100.00;100801.94;4871109;28;24428;-63
2023/12/28 08:32:46;;;;;;;1.90;1.80;;;10.10;99.90;;;10.24;100.00;100813.75;4862404;28;24446;-66
2023/12/28 08:35:08;;;;;;;1.63;1.53;;;10.10;99.90;;;10.29;99.91;100809.03;4864340;28;24452;-66
2023/12/28 08:37:31;;;;;;;1.90;1.80;;;10.10;99.90;;;10.30;100.00;100809.88;4834245;28;24435;-65
2023/12/28 08:39:53;;;;;;;1.90;1.50;;;10.20;99.90;;;10.35;100.00;100811.22;4868467;28;25073;-67
2023/12/28 08:42:15;;;;;;;1.35;1.25;;;10.20;99.90;;;10.33;100.00;100809.69;4845009;28;24448;-66
2023/12/28 08:44:37;;;;;;;1.40;1.30;;;10.20;99.90;;;10.41;99.28;100812.59;4875163;28;24525;-66
2023/12/28 08:46:59;;;;;;;1.35;1.25;;;10.20;99.90;;;10.39;99.54;100814.47;4853136;28;25078;-66
2023/12/28 08:49:22;;;;;;;2.70;1.40;;;10.20;99.90;;;10.37;99.43;100811.16;4840683;28;24467;-66
2023/12/28 08:51:44;;;;;;;1.20;1.10;;;10.20;99.90;;;10.44;99.20;100815.81;4865150;28;24535;-66
2023/12/28 08:54:06;;;;;;;2.70;1.60;;;10.30;99.90;;;10.33;100.00;100817.50;4857631;28;24428;-66
2023/12/28 08:56:29;;;;;;;1.30;1.30;;;10.20;99.90;;;10.31;99.43;100816.78;4858408;28;24458;-65
2023/12/28 08:58:52;;;;;;;1.73;1.63;;;10.20;99.90;;;10.36;99.75;100825.94;4869074;28;24973;-66
2023/12/28 09:01:22;;;;;;;2.53;1.80;;;10.20;99.90;;;10.34;99.89;100821.78;4874726;28;24532;-66
2023/12/28 09:03:45;;;;;;;2.53;1.50;;;10.20;99.90;;;10.34;99.21;100821.78;4858491;28;24456;-65
2023/12/28 09:06:08;;;;;;;1.75;1.60;;;10.20;99.90;;;10.39;98.91;100812.69;4868005;28;24443;-66
2023/12/28 09:08:30;;;;;;;1.70;1.60;;;10.20;99.90;;;10.36;98.90;100825.94;4849823;28;24659;-65
2023/12/28 09:10:51;;;;;;;2.53;1.40;;;10.20;99.90;;;10.48;97.83;100827.72;4839163;28;24826;-66
2023/12/28 09:13:17;;;;;;;1.70;1.60;;;10.30;99.90;;;10.44;98.12;100813.22;4853054;28;24980;-65
2023/12/28 09:15:40;;;;;;;2.22;1.60;;;10.30;99.90;;;10.41;98.20;100815.22;4853108;28;24527;-65
2023/12/28 09:18:02;;;;;;;2.20;1.90;;;10.30;99.90;;;10.46;97.00;100824.38;4840233;28;24447;-65
2023/12/28 09:20:24;;;;;;;1.60;1.50;;;10.30;99.90;;;10.51;98.02;100824.06;4867577;28;20820;-64
2023/12/28 09:22:47;;;;;;;1.70;1.60;;;10.30;99.90;;;10.51;98.33;100822.28;4862479;28;24451;-65
2023/12/28 09:25:09;;;;;;;1.70;1.60;;;10.30;99.90;;;10.54;97.49;100824.69;4844099;28;24486;-64
2023/12/28 09:27:31;;;;;;;1.42;1.33;;;10.40;99.90;;;10.56;97.16;100822.78;4876566;28;24439;-66
2023/12/28 09:29:53;;;;;;;1.90;1.80;;;10.40;99.90;;;10.51;97.53;100830.13;4858048;28;24555;-65
2023/12/28 09:32:16;;;;;;;1.80;1.70;;;10.30;99.90;;;10.48;97.85;100829.47;4874310;28;24439;-63
2023/12/28 09:34:40;;;;;;;1.67;1.58;;;10.40;99.90;;;10.47;98.12;100828.66;4857203;28;24435;-65
2023/12/28 09:37:02;;;;;;;1.50;1.20;;;10.30;99.90;;;10.45;98.54;100832.31;4848569;28;24885;-66
2023/12/28 09:39:24;;;;;;;2.10;1.60;;;10.30;99.90;;;10.46;98.11;100840.03;4846534;28;24448;-66
2023/12/28 09:41:55;;;;;;;1.50;1.40;;;10.30;99.90;;;10.40;98.20;100837.00;4838201;28;24428;-66
2023/12/28 09:44:18;;;;;;;2.22;1.42;;;10.30;99.90;;;10.39;98.13;100836.16;4854502;28;24493;-66
2023/12/28 09:46:46;;;;;;;1.80;1.70;;;10.30;99.90;;;10.41;98.95;100839.53;4875872;28;24583;-64
2023/12/28 09:49:09;;;;;;;1.92;1.83;;;10.30;99.90;;;10.43;98.22;100837.66;4855643;28;24871;-66
2023/12/28 09:51:31;;;;;;;2.05;1.83;;;10.30;99.90;;;10.51;98.44;100845.78;4859042;28;24529;-65
2023/12/28 09:53:54;;;;;;;1.50;1.40;;;10.30;99.90;;;10.54;96.68;100850.78;4839273;28;24462;-68
2023/12/28 09:56:16;;;;;;;1.80;1.70;;;10.40;99.90;;;10.58;97.43;100849.66;4858030;28;24510;-66
2023/12/28 09:58:40;;;;;;;1.90;1.80;;;10.40;99.90;;;10.62;97.30;100842.44;4854354;28;25013;-65